Weather at Glencoe Regional Health Service Heliport

Public forecast

Using degrees Fahrenheit for public forecast. Weather courtesy of forecast.io.

Closest aviation weather report (METAR) to Glencoe Regional Health Service Heliport

Closest report is Glencoe Municipal Airport, 3.4 nm (6.2 km) ESE.

2023/09/25 18:35 (retrieved 23 minutes ago)

KGYL 251835Z AUTO 09003KT 7SM -VCTSRA SCT035 OVC050 16/15 A3002 RMK AO2 LTG DSNT S P0004 T01610150

Closest aviation forecast (TAF) to Glencoe Regional Health Service Heliport

Closest forecast is Mankato Regional Airport, 34.8 nm (64.4 km) SSE.

2023/09/25 18:36 (retrieved 22 minutes ago)

TAF KMKT 251734Z 2518/2618 28006KT P6SM VCSH OVC013 TEMPO 2518/2521 3SM SHRA BR FM252100 33007KT 6SM -SHRA OVC018 FM260400 03005KT 4SM BR OVC006 FM261700 07008KT P6SM OVC012